Latest METAR Data

Below are the latest METARs ("Meteorological Services to Airmen Reports"), for RNAS Culdrose and Newquay Airport.

EGDR - RNAS Culdrose
Distance from station: SW 6mi, 9km
Updated: Thu, 28-Oct-2021 1:50am BST
Mostly Cloudy
Mostly Cloudy
 Wind from S
Wind: S 16 mph , 26 km/h
Temperature: 57°F , 14°C
Dew Point: 55°F , 13°C
Humidity: 94%
Barometer: 29.83 inHg , 1010 hPa
Clouds: Mostly Cloudy
Visibility: 6 miles , 9 km
Cloud details: Mostly Cloudy 500 ft
Mostly Cloudy 1200 ft
Mostly Cloudy 1700 ft
2021/10/28 00:50 EGDR 280050Z AUTO 18014KT 9000 // BKN005/// BKN012/// BKN017/// 14/13 Q1010
EGHQ - Newquay Airport
Distance from station: NE 21mi, 34km
Updated: Thu, 28-Oct-2021 1:50am BST
Overcast
Overcast
 Wind from S
Wind: S 20 mph , 31 km/h
Temperature: 57°F , 14°C
Dew Point: 54°F , 12°C
Humidity: 88%
Barometer: 29.83 inHg , 1010 hPa
Clouds: Overcast
Visibility: 6 miles , 10 km
Cloud details: Overcast 1100 ft
2021/10/28 00:50 EGHQ 280050Z AUTO 18017KT 9999 OVC011/// 14/12 Q1010
 
EGTE - Exeter Airport
Distance from station: ENE 88mi, 141km
Updated: Thu, 28-Oct-2021 1:50am BST
Mostly Cloudy
Mostly Cloudy
 Wind from S
Wind: S 13 mph , 20 km/h
Temperature: 59°F , 15°C
Dew Point: 54°F , 12°C
Humidity: 82%
Barometer: 29.85 inHg , 1011 hPa
Clouds: Mostly Cloudy
Visibility: 6 miles , 10 km
Cloud details: Mostly Cloudy 1900 ft
2021/10/28 00:50 EGTE 280050Z 17011KT 120V190 9999 BKN019 15/12 Q1011
EGHE - St Marys, IOS
Distance from station: W 51mi, 82km
Updated: Wed, 27-Oct-2021 4:50pm BST
NOT Current
Mostly Cloudy
Mostly Cloudy
 Wind from S
Wind: S 31 mph , 50 km/h
Temperature: 59°F , 15°C
Dew Point: 57°F , 14°C
Humidity: 94%
Barometer: 29.91 inHg , 1013 hPa
Clouds: Mostly Cloudy
Visibility: 6 miles , 9 km
Cloud details: Partly Cloudy 3100 ft
Mostly Cloudy 3500 ft
2021/10/27 15:50 EGHE 271550Z 19027KT 9000 SCT031 BKN035 15/14 Q1013

Metar display script from Saratoga-Weather.org

 

 

UK - WEATHER STATION TOPSITES - UK World Weather Websites

Copyright © Carnkie Weather 2009 - 2021.